Terminal Aerodrome Forecast
Issued by NWS

Home | Current Version | Previous Version | Text Only | Print | Product List | Glossary On
Versions: 1 2 3 4 5 6 7 8 9 10 11 12 13 14 15 16
000
FTUS46 KMFR 251739
TAFOTH
TAF
KOTH 251739Z 2518/2618 27010KT P6SM SKC
     FM252000 27010G18KT P6SM SCT080
     FM260200 25008KT 5SM BR OVC007
     FM260400 25005KT 4SM BR OVC003=

USA.gov is the U.S. government's official web portal to all federal, state and local government web resources and services.